Terminal Aerodrome Forecast
Issued by NWS

Current Version | Previous Version | Text Only | Print | Product List | Glossary On
Versions: 1 2 3 4 5 6 7 8 9 10 11 12 13 14 15 16 17 18 19
000
FTUS46 KLOX 232000 AAA
TAFVNY
TAF AMD
KVNY 232052Z 2321/2418 16010KT P6SM SCT200
     FM240100 30008KT P6SM SCT200
     FM240300 32006KT P6SM SCT200
     FM240600 VRB03KT P6SM SCT200=

USA.gov is the U.S. government's official web portal to all federal, state and local government web resources and services.